sensor_id;sensor_type;location;lat;lon;timestamp;pressure;altitude;pressure_sealevel;temperature;humidity
21817;BME280;13247;47.504;7.382;2023-02-26T00:01:43;96642.88;;;2.65;100.00
21817;BME280;13247;47.504;7.382;2023-02-26T00:04:28;96644.78;;;2.51;100.00
21817;BME280;13247;47.504;7.382;2023-02-26T00:07:12;96647.38;;;2.48;100.00
21817;BME280;13247;47.504;7.382;2023-02-26T00:09:57;96643.09;;;2.45;100.00
21817;BME280;13247;47.504;7.382;2023-02-26T00:12:43;96638.78;;;2.49;100.00
21817;BME280;13247;47.504;7.382;2023-02-26T00:15:28;96640.47;;;2.50;100.00
21817;BME280;13247;47.504;7.382;2023-02-26T00:18:14;96644.13;;;2.30;100.00
21817;BME280;13247;47.504;7.382;2023-02-26T00:21:00;96643.13;;;2.44;100.00
21817;BME280;13247;47.504;7.382;2023-02-26T00:23:45;96662.28;;;2.27;100.00
21817;BME280;13247;47.504;7.382;2023-02-26T00:26:31;96646.69;;;2.33;100.00
21817;BME280;13247;47.504;7.382;2023-02-26T00:29:16;96652.06;;;2.15;100.00
21817;BME280;13247;47.504;7.382;2023-02-26T00:32:01;96640.06;;;2.05;100.00
21817;BME280;13247;47.504;7.382;2023-02-26T00:34:47;96658.91;;;2.19;100.00
21817;BME280;13247;47.504;7.382;2023-02-26T00:37:56;96656.25;;;2.25;100.00
21817;BME280;13247;47.504;7.382;2023-02-26T00:40:49;96659.13;;;1.98;100.00
21817;BME280;13247;47.504;7.382;2023-02-26T00:43:36;96659.97;;;1.97;100.00
21817;BME280;13247;47.504;7.382;2023-02-26T00:46:53;96666.81;;;2.03;100.00
21817;BME280;13247;47.504;7.382;2023-02-26T00:55:42;96676.56;;;1.72;100.00
21817;BME280;13247;47.504;7.382;2023-02-26T00:58:26;96674.81;;;1.74;100.00
21817;BME280;13247;47.504;7.382;2023-02-26T01:01:11;96671.50;;;1.60;100.00
21817;BME280;13247;47.504;7.382;2023-02-26T01:03:56;96670.47;;;1.81;100.00
21817;BME280;13247;47.504;7.382;2023-02-26T01:06:47;96669.66;;;1.74;99.77
21817;BME280;13247;47.504;7.382;2023-02-26T01:09:34;96659.44;;;1.59;98.40
21817;BME280;13247;47.504;7.382;2023-02-26T01:12:19;96672.22;;;1.74;97.61
21817;BME280;13247;47.504;7.382;2023-02-26T01:15:05;96664.66;;;1.50;97.36
21817;BME280;13247;47.504;7.382;2023-02-26T01:18:02;96667.28;;;1.45;92.74
21817;BME280;13247;47.504;7.382;2023-02-26T01:20:55;96657.69;;;1.61;94.36
21817;BME280;13247;47.504;7.382;2023-02-26T01:23:44;96660.22;;;1.69;93.32
21817;BME280;13247;47.504;7.382;2023-02-26T01:26:31;96662.13;;;1.44;91.82
21817;BME280;13247;47.504;7.382;2023-02-26T01:29:16;96661.25;;;1.46;92.54
21817;BME280;13247;47.504;7.382;2023-02-26T01:32:25;96660.44;;;1.41;89.94
21817;BME280;13247;47.504;7.382;2023-02-26T01:35:31;96657.16;;;1.18;89.19
21817;BME280;13247;47.504;7.382;2023-02-26T01:38:29;96661.34;;;1.33;91.40
21817;BME280;13247;47.504;7.382;2023-02-26T01:41:29;96663.91;;;1.31;90.93
21817;BME280;13247;47.504;7.382;2023-02-26T01:44:25;96660.41;;;1.43;90.38
21817;BME280;13247;47.504;7.382;2023-02-26T01:47:19;96660.44;;;1.41;92.04
21817;BME280;13247;47.504;7.382;2023-02-26T01:50:22;96667.47;;;1.18;93.22
21817;BME280;13247;47.504;7.382;2023-02-26T01:53:21;96672.69;;;1.09;94.76
21817;BME280;13247;47.504;7.382;2023-02-26T01:56:16;96669.94;;;1.32;93.69
21817;BME280;13247;47.504;7.382;2023-02-26T01:59:03;96671.78;;;1.13;95.83
21817;BME280;13247;47.504;7.382;2023-02-26T02:01:53;96658.06;;;1.05;98.11
21817;BME280;13247;47.504;7.382;2023-02-26T02:04:40;96664.03;;;1.10;96.32
21817;BME280;13247;47.504;7.382;2023-02-26T02:07:26;96666.63;;;1.13;96.68
21817;BME280;13247;47.504;7.382;2023-02-26T02:10:11;96665.69;;;1.26;96.12
21817;BME280;13247;47.504;7.382;2023-02-26T02:13:09;96664.19;;;0.83;95.65
21817;BME280;13247;47.504;7.382;2023-02-26T02:16:46;96671.84;;;1.00;97.86
21817;BME280;13247;47.504;7.382;2023-02-26T02:19:53;96673.63;;;0.87;98.37
21817;BME280;13247;47.504;7.382;2023-02-26T02:25:55;96681.25;;;1.13;99.90
21817;BME280;13247;47.504;7.382;2023-02-26T02:29:07;96685.78;;;0.67;97.29
21817;BME280;13247;47.504;7.382;2023-02-26T02:32:03;96685.66;;;0.91;99.20
21817;BME280;13247;47.504;7.382;2023-02-26T02:34:57;96684.78;;;0.98;100.00
21817;BME280;13247;47.504;7.382;2023-02-26T02:37:49;96686.59;;;0.73;100.00
21817;BME280;13247;47.504;7.382;2023-02-26T02:40:37;96677.03;;;0.94;99.10
21817;BME280;13247;47.504;7.382;2023-02-26T02:43:27;96684.81;;;0.89;99.84
21817;BME280;13247;47.504;7.382;2023-02-26T02:46:20;96683.06;;;0.91;98.43
21817;BME280;13247;47.504;7.382;2023-02-26T02:49:12;96682.28;;;0.77;100.00
21817;BME280;13247;47.504;7.382;2023-02-26T02:52:10;96673.66;;;0.82;100.00
21817;BME280;13247;47.504;7.382;2023-02-26T02:55:05;96679.66;;;0.88;100.00
21817;BME280;13247;47.504;7.382;2023-02-26T03:00:52;96681.41;;;0.84;100.00
21817;BME280;13247;47.504;7.382;2023-02-26T03:04:04;96687.47;;;0.71;100.00
21817;BME280;13247;47.504;7.382;2023-02-26T03:06:50;96697.75;;;0.86;100.00
21817;BME280;13247;47.504;7.382;2023-02-26T03:09:35;96681.44;;;0.78;100.00
21817;BME280;13247;47.504;7.382;2023-02-26T03:12:19;96692.72;;;0.41;100.00
21817;BME280;13247;47.504;7.382;2023-02-26T03:15:04;96694.38;;;0.63;100.00
21817;BME280;13247;47.504;7.382;2023-02-26T03:20:54;96702.13;;;0.55;100.00
21817;BME280;13247;47.504;7.382;2023-02-26T03:23:48;96705.56;;;0.65;100.00
21817;BME280;13247;47.504;7.382;2023-02-26T03:26:58;96716.63;;;0.93;100.00
21817;BME280;13247;47.504;7.382;2023-02-26T03:29:52;96716.69;;;0.77;100.00
21817;BME280;13247;47.504;7.382;2023-02-26T03:36:03;96719.38;;;0.41;100.00
21817;BME280;13247;47.504;7.382;2023-02-26T03:41:55;96713.34;;;0.36;100.00
21817;BME280;13247;47.504;7.382;2023-02-26T03:44:51;96729.69;;;0.26;100.00
21817;BME280;13247;47.504;7.382;2023-02-26T03:47:38;96732.28;;;0.25;100.00
21817;BME280;13247;47.504;7.382;2023-02-26T03:50:38;96714.16;;;0.59;100.00
21817;BME280;13247;47.504;7.382;2023-02-26T03:53:29;96715.06;;;0.46;100.00
21817;BME280;13247;47.504;7.382;2023-02-26T03:56:44;96727.09;;;0.32;100.00
21817;BME280;13247;47.504;7.382;2023-02-26T03:59:29;96732.25;;;0.38;100.00
21817;BME280;13247;47.504;7.382;2023-02-26T04:02:24;96737.44;;;0.29;100.00
21817;BME280;13247;47.504;7.382;2023-02-26T04:05:17;96727.91;;;0.58;100.00
21817;BME280;13247;47.504;7.382;2023-02-26T04:08:03;96739.13;;;0.21;100.00
21817;BME280;13247;47.504;7.382;2023-02-26T04:10:58;96736.56;;;0.33;100.00
21817;BME280;13247;47.504;7.382;2023-02-26T04:13:44;96742.59;;;0.29;100.00
21817;BME280;13247;47.504;7.382;2023-02-26T04:16:29;96743.47;;;0.21;100.00
21817;BME280;13247;47.504;7.382;2023-02-26T04:19:14;96746.91;;;0.14;100.00
21817;BME280;13247;47.504;7.382;2023-02-26T04:21:58;96755.47;;;0.25;100.00
21817;BME280;13247;47.504;7.382;2023-02-26T04:24:43;96753.75;;;0.27;100.00
21817;BME280;13247;47.504;7.382;2023-02-26T04:27:28;96751.16;;;0.37;100.00
21817;BME280;13247;47.504;7.382;2023-02-26T04:30:12;96750.31;;;0.35;100.00
21817;BME280;13247;47.504;7.382;2023-02-26T04:32:57;96749.47;;;0.06;100.00
21817;BME280;13247;47.504;7.382;2023-02-26T04:35:42;96758.06;;;0.14;100.00
21817;BME280;13247;47.504;7.382;2023-02-26T04:38:27;96747.75;;;0.29;100.00
21817;BME280;13247;47.504;7.382;2023-02-26T04:41:12;96764.06;;;0.09;100.00
21817;BME280;13247;47.504;7.382;2023-02-26T04:43:57;96762.34;;;-0.06;100.00
21817;BME280;13247;47.504;7.382;2023-02-26T04:46:42;96758.06;;;0.14;100.00
21817;BME280;13247;47.504;7.382;2023-02-26T04:49:26;96758.94;;;0.21;100.00
21817;BME280;13247;47.504;7.382;2023-02-26T04:52:11;96753.75;;;0.19;100.00
21817;BME280;13247;47.504;7.382;2023-02-26T04:54:56;96763.22;;;-0.22;100.00
21817;BME280;13247;47.504;7.382;2023-02-26T04:57:40;96758.06;;;-0.01;100.00
21817;BME280;13247;47.504;7.382;2023-02-26T05:00:25;96757.22;;;0.08;100.00
21817;BME280;13247;47.504;7.382;2023-02-26T05:03:10;96760.63;;;-0.16;100.00
21817;BME280;13247;47.504;7.382;2023-02-26T05:05:56;96763.22;;;-0.07;100.00
21817;BME280;13247;47.504;7.382;2023-02-26T05:08:41;96764.94;;;-0.09;100.00
21817;BME280;13247;47.504;7.382;2023-02-26T05:11:26;96760.63;;;-0.22;100.00
21817;BME280;13247;47.504;7.382;2023-02-26T05:14:11;96756.31;;;-0.25;100.00
21817;BME280;13247;47.504;7.382;2023-02-26T05:16:55;96752.88;;;-0.31;100.00
21817;BME280;13247;47.504;7.382;2023-02-26T05:19:40;96757.19;;;-0.23;100.00
21817;BME280;13247;47.504;7.382;2023-02-26T05:22:25;96762.34;;;-0.35;100.00
21817;BME280;13247;47.504;7.382;2023-02-26T05:25:10;96756.34;;;-0.26;100.00
21817;BME280;13247;47.504;7.382;2023-02-26T05:27:58;96751.19;;;-0.32;100.00
21817;BME280;13247;47.504;7.382;2023-02-26T05:30:44;96747.72;;;-0.25;100.00
21817;BME280;13247;47.504;7.382;2023-02-26T05:33:28;96730.56;;;-0.47;100.00
21817;BME280;13247;47.504;7.382;2023-02-26T05:36:13;96736.56;;;-0.33;100.00
21817;BME280;13247;47.504;7.382;2023-02-26T05:38:57;96741.72;;;-0.47;100.00
21817;BME280;13247;47.504;7.382;2023-02-26T05:41:42;96747.72;;;-0.49;100.00
21817;BME280;13247;47.504;7.382;2023-02-26T05:44:26;96751.09;;;-0.68;100.00
21817;BME280;13247;47.504;7.382;2023-02-26T05:47:11;96759.72;;;-0.48;100.00
21817;BME280;13247;47.504;7.382;2023-02-26T05:49:56;96761.44;;;-0.58;100.00
21817;BME280;13247;47.504;7.382;2023-02-26T05:52:41;96758.84;;;-0.56;100.00
21817;BME280;13247;47.504;7.382;2023-02-26T05:55:25;96751.94;;;-0.78;100.00
21817;BME280;13247;47.504;7.382;2023-02-26T05:58:10;96766.50;;;-0.84;100.00
21817;BME280;13247;47.504;7.382;2023-02-26T06:00:56;96759.66;;;-0.69;100.00
21817;BME280;13247;47.504;7.382;2023-02-26T06:03:41;96773.38;;;-0.73;100.00
21817;BME280;13247;47.504;7.382;2023-02-26T06:06:27;96772.47;;;-0.91;100.00
21817;BME280;13247;47.504;7.382;2023-02-26T06:09:12;96769.00;;;-0.97;100.00
21817;BME280;13247;47.504;7.382;2023-02-26T06:11:56;96773.28;;;-1.04;100.00
21817;BME280;13247;47.504;7.382;2023-02-26T06:14:41;96773.38;;;-0.80;100.00
21817;BME280;13247;47.504;7.382;2023-02-26T06:17:25;96780.19;;;-0.91;100.00
21817;BME280;13247;47.504;7.382;2023-02-26T06:20:11;96768.19;;;-0.89;100.00
21817;BME280;13247;47.504;7.382;2023-02-26T06:22:56;96781.94;;;-0.84;100.00
21817;BME280;13247;47.504;7.382;2023-02-26T06:25:41;96775.91;;;-0.90;100.00
21817;BME280;13247;47.504;7.382;2023-02-26T06:28:26;96790.34;;;-1.18;100.00
21817;BME280;13247;47.504;7.382;2023-02-26T06:31:10;96793.94;;;-0.86;100.00
21817;BME280;13247;47.504;7.382;2023-02-26T06:33:55;96789.63;;;-0.91;100.00
21817;BME280;13247;47.504;7.382;2023-02-26T06:36:40;96799.81;;;-1.08;100.00
21817;BME280;13247;47.504;7.382;2023-02-26T06:39:24;96799.91;;;-0.88;100.00
21817;BME280;13247;47.504;7.382;2023-02-26T06:42:09;96808.44;;;-1.04;100.00
21817;BME280;13247;47.504;7.382;2023-02-26T06:44:54;96809.34;;;-0.92;100.00
21817;BME280;13247;47.504;7.382;2023-02-26T06:47:40;96811.78;;;-1.16;100.00
21817;BME280;13247;47.504;7.382;2023-02-26T06:50:25;96820.28;;;-1.30;100.00
21817;BME280;13247;47.504;7.382;2023-02-26T06:53:09;96824.72;;;-1.08;100.00
21817;BME280;13247;47.504;7.382;2023-02-26T06:55:54;96826.56;;;-0.85;100.00
21817;BME280;13247;47.504;7.382;2023-02-26T06:58:39;96828.16;;;-1.05;100.00
21817;BME280;13247;47.504;7.382;2023-02-26T07:01:23;96834.91;;;-1.25;100.00
21817;BME280;13247;47.504;7.382;2023-02-26T07:04:08;96839.34;;;-0.98;100.00
21817;BME280;13247;47.504;7.382;2023-02-26T07:06:52;96836.75;;;-0.97;100.00
21817;BME280;13247;47.504;7.382;2023-02-26T07:09:37;96834.22;;;-0.94;100.00
21817;BME280;13247;47.504;7.382;2023-02-26T07:12:22;96828.28;;;-0.76;100.00
21817;BME280;13247;47.504;7.382;2023-02-26T07:15:07;96848.78;;;-0.93;100.00
21817;BME280;13247;47.504;7.382;2023-02-26T07:17:52;96847.78;;;-1.17;100.00
21817;BME280;13247;47.504;7.382;2023-02-26T07:20:37;96843.59;;;-1.02;100.00
21817;BME280;13247;47.504;7.382;2023-02-26T07:23:21;96846.03;;;-1.27;100.00
21817;BME280;13247;47.504;7.382;2023-02-26T07:26:06;96848.75;;;-1.00;100.00
21817;BME280;13247;47.504;7.382;2023-02-26T07:28:52;96851.38;;;-0.90;100.00
21817;BME280;13247;47.504;7.382;2023-02-26T07:31:37;96848.88;;;-0.81;100.00
21817;BME280;13247;47.504;7.382;2023-02-26T07:34:21;96865.94;;;-0.95;100.00
21817;BME280;13247;47.504;7.382;2023-02-26T07:37:06;96853.97;;;-0.85;100.00
21817;BME280;13247;47.504;7.382;2023-02-26T07:39:51;96860.03;;;-0.72;100.00
21817;BME280;13247;47.504;7.382;2023-02-26T07:42:36;96862.69;;;-0.54;100.00
21817;BME280;13247;47.504;7.382;2023-02-26T07:45:20;96856.72;;;-0.49;100.00
21817;BME280;13247;47.504;7.382;2023-02-26T07:48:05;96850.66;;;-0.61;100.00
21817;BME280;13247;47.504;7.382;2023-02-26T07:50:54;96850.69;;;-0.55;100.00
21817;BME280;13247;47.504;7.382;2023-02-26T07:53:38;96859.34;;;-0.32;100.00
21817;BME280;13247;47.504;7.382;2023-02-26T07:56:23;96853.34;;;-0.27;100.00
21817;BME280;13247;47.504;7.382;2023-02-26T07:59:09;96857.56;;;-0.44;100.00
21817;BME280;13247;47.504;7.382;2023-02-26T08:01:54;96857.66;;;-0.26;100.00
21817;BME280;13247;47.504;7.382;2023-02-26T08:04:39;96847.31;;;-0.36;100.00
21817;BME280;13247;47.504;7.382;2023-02-26T08:07:24;96849.97;;;0.02;100.00
21817;BME280;13247;47.504;7.382;2023-02-26T08:10:10;96862.81;;;-0.12;100.00
21817;BME280;13247;47.504;7.382;2023-02-26T08:12:55;96859.41;;;-0.05;100.00
21817;BME280;13247;47.504;7.382;2023-02-26T08:15:39;96851.69;;;-0.05;100.00
21817;BME280;13247;47.504;7.382;2023-02-26T08:18:27;96844.84;;;0.12;97.22
21817;BME280;13247;47.504;7.382;2023-02-26T08:21:11;96850.88;;;0.23;96.40
21817;BME280;13247;47.504;7.382;2023-02-26T08:23:56;96850.84;;;0.17;90.96
21817;BME280;13247;47.504;7.382;2023-02-26T08:26:40;96837.97;;;0.08;91.16
21817;BME280;13247;47.504;7.382;2023-02-26T08:29:25;96836.25;;;0.10;91.18
21817;BME280;13247;47.504;7.382;2023-02-26T08:32:10;96841.38;;;-0.01;91.96
21817;BME280;13247;47.504;7.382;2023-02-26T08:34:54;96837.94;;;0.17;91.51
21817;BME280;13247;47.504;7.382;2023-02-26T08:37:39;96846.53;;;0.09;87.96
21817;BME280;13247;47.504;7.382;2023-02-26T08:40:23;96842.25;;;0.09;92.47
21817;BME280;13247;47.504;7.382;2023-02-26T08:43:08;96843.97;;;0.22;93.63
21817;BME280;13247;47.504;7.382;2023-02-26T08:45:53;96842.25;;;0.24;94.63
21817;BME280;13247;47.504;7.382;2023-02-26T08:48:38;96849.97;;;0.09;92.97
21817;BME280;13247;47.504;7.382;2023-02-26T08:51:23;96851.72;;;0.15;92.62
21817;BME280;13247;47.504;7.382;2023-02-26T08:54:08;96844.84;;;0.17;93.02
21817;BME280;13247;47.504;7.382;2023-02-26T08:56:53;96840.56;;;0.29;91.53
21817;BME280;13247;47.504;7.382;2023-02-26T08:59:39;96839.69;;;0.23;91.30
21817;BME280;13247;47.504;7.382;2023-02-26T09:02:23;96845.69;;;0.26;90.11
21817;BME280;13247;47.504;7.382;2023-02-26T09:05:08;96851.72;;;0.36;87.21
21817;BME280;13247;47.504;7.382;2023-02-26T09:07:53;96837.97;;;0.46;89.09
21817;BME280;13247;47.504;7.382;2023-02-26T09:10:37;96848.28;;;0.31;81.37
21817;BME280;13247;47.504;7.382;2023-02-26T09:13:22;96840.53;;;0.58;81.10
21817;BME280;13247;47.504;7.382;2023-02-26T09:16:07;96838.81;;;0.79;82.58
21817;BME280;13247;47.504;7.382;2023-02-26T09:18:51;96851.69;;;0.86;79.12
21817;BME280;13247;47.504;7.382;2023-02-26T09:21:37;96860.31;;;0.72;78.51
21817;BME280;13247;47.504;7.382;2023-02-26T09:24:21;96862.06;;;0.46;76.66
21817;BME280;13247;47.504;7.382;2023-02-26T09:27:06;96837.09;;;0.63;80.32
21817;BME280;13247;47.504;7.382;2023-02-26T09:29:50;96840.53;;;0.62;78.76
21817;BME280;13247;47.504;7.382;2023-02-26T09:32:35;96845.72;;;0.50;79.48
21817;BME280;13247;47.504;7.382;2023-02-26T09:35:20;96839.66;;;0.80;80.67
21817;BME280;13247;47.504;7.382;2023-02-26T09:38:04;96844.84;;;0.80;82.50
21817;BME280;13247;47.504;7.382;2023-02-26T09:41:20;96856.03;;;0.71;81.87
21817;BME280;13247;47.504;7.382;2023-02-26T09:44:18;96855.97;;;1.00;79.79
21817;BME280;13247;47.504;7.382;2023-02-26T09:47:31;96856.88;;;0.84;77.92
21817;BME280;13247;47.504;7.382;2023-02-26T09:50:39;96851.69;;;0.84;78.43
21817;BME280;13247;47.504;7.382;2023-02-26T09:53:37;96843.91;;;1.07;80.48
21817;BME280;13247;47.504;7.382;2023-02-26T09:56:24;96855.97;;;0.99;79.51
21817;BME280;13247;47.504;7.382;2023-02-26T09:59:10;96849.06;;;1.10;80.23
21817;BME280;13247;47.504;7.382;2023-02-26T10:08:03;96867.16;;;0.93;76.74
21817;BME280;13247;47.504;7.382;2023-02-26T10:11:04;96864.59;;;0.75;75.54
21817;BME280;13247;47.504;7.382;2023-02-26T10:14:07;96865.41;;;1.06;76.78
21817;BME280;13247;47.504;7.382;2023-02-26T10:17:06;96875.75;;;1.07;79.16
21817;BME280;13247;47.504;7.382;2023-02-26T10:19:55;96870.56;;;1.04;77.39
21817;BME280;13247;47.504;7.382;2023-02-26T10:22:56;96869.69;;;1.20;75.44
21817;BME280;13247;47.504;7.382;2023-02-26T10:25:52;96868.81;;;1.29;76.46
21817;BME280;13247;47.504;7.382;2023-02-26T10:32:03;96874.84;;;1.19;73.25
21817;BME280;13247;47.504;7.382;2023-02-26T10:35:05;96865.41;;;1.10;73.67
21817;BME280;13247;47.504;7.382;2023-02-26T10:38:04;96879.09;;;1.41;75.07
21817;BME280;13247;47.504;7.382;2023-02-26T10:41:11;96874.81;;;1.28;74.50
21817;BME280;13247;47.504;7.382;2023-02-26T10:50:48;96879.91;;;1.55;65.21
21817;BME280;13247;47.504;7.382;2023-02-26T10:53:33;96883.34;;;1.57;62.20
21817;BME280;13247;47.504;7.382;2023-02-26T10:56:27;96872.94;;;1.69;64.41
21817;BME280;13247;47.504;7.382;2023-02-26T10:59:14;96871.13;;;1.89;63.16
21817;BME280;13247;47.504;7.382;2023-02-26T11:01:59;96880.72;;;1.68;61.07
21817;BME280;13247;47.504;7.382;2023-02-26T11:04:44;96879.03;;;1.57;55.04
21817;BME280;13247;47.504;7.382;2023-02-26T11:07:30;96877.22;;;1.76;54.75
21817;BME280;13247;47.504;7.382;2023-02-26T11:10:18;96880.66;;;1.81;52.95
21817;BME280;13247;47.504;7.382;2023-02-26T11:13:04;96895.28;;;1.82;52.22
21817;BME280;13247;47.504;7.382;2023-02-26T11:15:52;96881.50;;;1.80;52.61
21817;BME280;13247;47.504;7.382;2023-02-26T11:18:41;96887.56;;;1.79;51.79
21817;BME280;13247;47.504;7.382;2023-02-26T11:21:37;96890.13;;;1.81;52.55
21817;BME280;13247;47.504;7.382;2023-02-26T11:24:46;96885.91;;;1.60;54.20
21817;BME280;13247;47.504;7.382;2023-02-26T11:27:36;96897.06;;;1.70;54.71
21817;BME280;13247;47.504;7.382;2023-02-26T11:30:25;96894.47;;;1.71;51.99
21817;BME280;13247;47.504;7.382;2023-02-26T11:33:23;96886.72;;;1.71;54.01
21817;BME280;13247;47.504;7.382;2023-02-26T11:36:18;96891.78;;;1.91;53.17
21817;BME280;13247;47.504;7.382;2023-02-26T11:39:16;96896.88;;;2.10;52.42
21817;BME280;13247;47.504;7.382;2023-02-26T11:42:03;96900.34;;;2.06;52.12
21817;BME280;13247;47.504;7.382;2023-02-26T11:44:50;96906.44;;;1.93;51.77
21817;BME280;13247;47.504;7.382;2023-02-26T11:47:35;96894.41;;;1.86;51.69
21817;BME280;13247;47.504;7.382;2023-02-26T11:50:21;96889.97;;;2.12;51.50
21817;BME280;13247;47.504;7.382;2023-02-26T11:53:18;96887.56;;;1.76;49.49
21817;BME280;13247;47.504;7.382;2023-02-26T11:56:12;96890.03;;;2.02;49.38
21817;BME280;13247;47.504;7.382;2023-02-26T11:59:01;96884.78;;;2.09;50.84
21817;BME280;13247;47.504;7.382;2023-02-26T12:01:50;96885.63;;;2.16;50.78
21817;BME280;13247;47.504;7.382;2023-02-26T12:04:35;96880.56;;;1.95;50.33
21817;BME280;13247;47.504;7.382;2023-02-26T12:07:22;96902.28;;;1.59;52.91
21817;BME280;13247;47.504;7.382;2023-02-26T12:10:16;96895.41;;;1.46;59.02
21817;BME280;13247;47.504;7.382;2023-02-26T12:13:37;96905.75;;;1.52;62.14
21817;BME280;13247;47.504;7.382;2023-02-26T12:32:12;96879.03;;;1.62;66.28
21817;BME280;13247;47.504;7.382;2023-02-26T12:41:44;96873.81;;;1.73;64.56
21817;BME280;13247;47.504;7.382;2023-02-26T12:44:50;96867.69;;;1.89;63.62
21817;BME280;13247;47.504;7.382;2023-02-26T12:57:22;96871.00;;;2.10;56.07
21817;BME280;13247;47.504;7.382;2023-02-26T13:04:33;96871.56;;;2.55;53.63
21817;BME280;13247;47.504;7.382;2023-02-26T13:13:06;96864.72;;;2.49;50.73
21817;BME280;13247;47.504;7.382;2023-02-26T13:19:13;96869.91;;;2.43;49.43
21817;BME280;13247;47.504;7.382;2023-02-26T13:25:08;96875.94;;;2.47;50.08
21817;BME280;13247;47.504;7.382;2023-02-26T13:28:01;96885.41;;;2.51;51.27
21817;BME280;13247;47.504;7.382;2023-02-26T13:30:53;96888.00;;;2.48;49.66
21817;BME280;13247;47.504;7.382;2023-02-26T13:33:40;96877.66;;;2.48;49.70
21817;BME280;13247;47.504;7.382;2023-02-26T13:36:27;96885.34;;;2.57;51.06
21817;BME280;13247;47.504;7.382;2023-02-26T13:42:29;96880.16;;;2.61;50.08
21817;BME280;13247;47.504;7.382;2023-02-26T13:45:51;96897.34;;;2.67;51.07
21817;BME280;13247;47.504;7.382;2023-02-26T13:51:36;96902.66;;;2.49;52.29
21817;BME280;13247;47.504;7.382;2023-02-26T13:54:34;96899.22;;;2.47;53.12
21817;BME280;13247;47.504;7.382;2023-02-26T13:57:48;96907.78;;;2.58;52.57
21817;BME280;13247;47.504;7.382;2023-02-26T14:00:34;96902.59;;;2.56;52.55
21817;BME280;13247;47.504;7.382;2023-02-26T14:17:51;96913.72;;;2.72;54.59
21817;BME280;13247;47.504;7.382;2023-02-26T14:20:44;96917.22;;;2.63;55.81
21817;BME280;13247;47.504;7.382;2023-02-26T14:23:35;96915.34;;;2.79;56.79
21817;BME280;13247;47.504;7.382;2023-02-26T14:26:21;96920.59;;;2.74;58.42
21817;BME280;13247;47.504;7.382;2023-02-26T14:29:08;96919.56;;;2.95;58.59
21817;BME280;13247;47.504;7.382;2023-02-26T14:35:02;96917.09;;;2.83;60.11
21817;BME280;13247;47.504;7.382;2023-02-26T14:38:00;96906.00;;;2.63;61.96
21817;BME280;13247;47.504;7.382;2023-02-26T14:41:29;96911.16;;;2.66;61.58
21817;BME280;13247;47.504;7.382;2023-02-26T14:44:27;96906.78;;;2.74;58.30
21817;BME280;13247;47.504;7.382;2023-02-26T14:47:14;96920.78;;;2.46;57.03
21817;BME280;13247;47.504;7.382;2023-02-26T14:49:58;96921.59;;;2.55;56.54
21817;BME280;13247;47.504;7.382;2023-02-26T14:53:07;96913.81;;;2.57;54.86
21817;BME280;13247;47.504;7.382;2023-02-26T15:05:43;96934.56;;;2.51;63.21
21817;BME280;13247;47.504;7.382;2023-02-26T15:11:41;96919.97;;;2.37;58.80
21817;BME280;13247;47.504;7.382;2023-02-26T15:26:34;96948.50;;;2.22;71.67
21817;BME280;13247;47.504;7.382;2023-02-26T15:29:24;96934.56;;;2.48;72.72
21817;BME280;13247;47.504;7.382;2023-02-26T15:35:20;96945.84;;;2.37;73.71
21817;BME280;13247;47.504;7.382;2023-02-26T15:38:05;96943.19;;;2.50;70.99
21817;BME280;13247;47.504;7.382;2023-02-26T15:40:52;96942.22;;;2.66;70.37
21817;BME280;13247;47.504;7.382;2023-02-26T15:43:44;96940.41;;;2.75;70.22
21817;BME280;13247;47.504;7.382;2023-02-26T15:46:32;96943.94;;;2.67;67.97
21817;BME280;13247;47.504;7.382;2023-02-26T15:49:28;96950.25;;;2.23;71.29
21817;BME280;13247;47.504;7.382;2023-02-26T15:52:20;96950.38;;;1.96;81.37
21817;BME280;13247;47.504;7.382;2023-02-26T15:55:06;96953.81;;;1.95;87.08
21817;BME280;13247;47.504;7.382;2023-02-26T15:57:53;96970.19;;;1.96;92.20
21817;BME280;13247;47.504;7.382;2023-02-26T16:00:38;96973.69;;;1.83;98.68
21817;BME280;13247;47.504;7.382;2023-02-26T16:03:31;96973.75;;;1.48;100.00
21817;BME280;13247;47.504;7.382;2023-02-26T16:06:19;96957.34;;;1.75;100.00
21817;BME280;13247;47.504;7.382;2023-02-26T16:09:14;96966.81;;;1.77;100.00
21817;BME280;13247;47.504;7.382;2023-02-26T16:12:07;96960.81;;;1.63;100.00
21817;BME280;13247;47.504;7.382;2023-02-26T16:14:59;96974.59;;;1.59;100.00
21817;BME280;13247;47.504;7.382;2023-02-26T16:17:49;96973.78;;;1.55;100.00
21817;BME280;13247;47.504;7.382;2023-02-26T16:20:40;96977.09;;;1.91;98.70
21817;BME280;13247;47.504;7.382;2023-02-26T16:23:47;96975.41;;;1.87;97.32
21817;BME280;13247;47.504;7.382;2023-02-26T16:26:40;96974.56;;;1.74;98.12
21817;BME280;13247;47.504;7.382;2023-02-26T16:29:28;96988.44;;;1.47;100.00
21817;BME280;13247;47.504;7.382;2023-02-26T16:32:13;96991.84;;;1.52;100.00
21817;BME280;13247;47.504;7.382;2023-02-26T16:35:10;97000.47;;;1.48;100.00
21817;BME280;13247;47.504;7.382;2023-02-26T16:37:55;96996.16;;;1.40;100.00
21817;BME280;13247;47.504;7.382;2023-02-26T16:40:40;97003.06;;;1.45;100.00
21817;BME280;13247;47.504;7.382;2023-02-26T16:43:49;97006.53;;;1.41;100.00
21817;BME280;13247;47.504;7.382;2023-02-26T16:46:40;97015.13;;;1.49;100.00
21817;BME280;13247;47.504;7.382;2023-02-26T16:49:29;97013.38;;;1.51;100.00
21817;BME280;13247;47.504;7.382;2023-02-26T16:52:19;97018.56;;;1.36;100.00
21817;BME280;13247;47.504;7.382;2023-02-26T16:55:05;97016.00;;;1.08;100.00
21817;BME280;13247;47.504;7.382;2023-02-26T16:57:54;97017.69;;;1.45;100.00
21817;BME280;13247;47.504;7.382;2023-02-26T17:00:43;97010.81;;;1.44;100.00
21817;BME280;13247;47.504;7.382;2023-02-26T17:03:29;97011.59;;;1.78;100.00
21817;BME280;13247;47.504;7.382;2023-02-26T17:06:15;97024.56;;;1.64;100.00
21817;BME280;13247;47.504;7.382;2023-02-26T17:09:05;97041.75;;;1.71;100.00
21817;BME280;13247;47.504;7.382;2023-02-26T17:12:49;97039.19;;;1.74;100.00
21817;BME280;13247;47.504;7.382;2023-02-26T17:15:17;97043.50;;;1.37;100.00
21817;BME280;13247;47.504;7.382;2023-02-26T17:18:02;97040.06;;;1.46;100.00
21817;BME280;13247;47.504;7.382;2023-02-26T17:20:47;97037.47;;;1.61;100.00